Time;durP1;ratioP1;P1;durP2;ratioP2;P2;SDS_P1;SDS_P2;PMS_P1;PMS_P2;Temp;Humidity;BMP_temperature;BMP_pressure;BME280_temperature;BME280_humidity;BME280_pressure;Samples;Min_cycle;Max_cycle;Signal;HPM_P1;HPM_P2
2021/03/16 00:00:50;;;;;;;14.60;5.60;;;7.10;99.90;;;;;;5082965;28;20972;-78
2021/03/16 00:03:18;;;;;;;17.58;5.18;;;7.10;99.90;;;;;;5080787;28;20206;-80
2021/03/16 00:05:45;;;;;;;23.02;4.72;;;7.10;99.90;;;;;;5080442;28;20196;-77
2021/03/16 00:08:12;;;;;;;18.60;4.07;;;7.10;99.90;;;;;;5081834;28;20187;-77
2021/03/16 00:10:39;;;;;;;17.58;5.15;;;7.10;99.90;;;;;;5082855;28;20848;-78
2021/03/16 00:13:05;;;;;;;12.43;3.72;;;7.10;99.90;;;;;;5083213;28;20227;-79
2021/03/16 00:15:31;;;;;;;21.02;4.90;;;7.10;99.90;;;;;;5078745;28;20677;-77
2021/03/16 00:17:58;;;;;;;14.93;3.38;;;7.10;99.90;;;;;;5080303;28;20282;-78
2021/03/16 00:20:25;;;;;;;29.80;5.82;;;7.10;99.90;;;;;;5083368;28;20201;-78
2021/03/16 00:22:51;;;;;;;10.82;4.55;;;7.10;99.90;;;;;;5084945;28;20208;-78
2021/03/16 00:25:18;;;;;;;14.02;3.58;;;7.10;99.90;;;;;;5082920;28;20226;-79
2021/03/16 00:27:46;;;;;;;26.60;4.20;;;7.10;99.90;;;;;;5079805;28;20192;-77
2021/03/16 00:30:14;;;;;;;17.85;4.15;;;7.10;99.90;;;;;;5078681;28;20703;-78
2021/03/16 00:32:40;;;;;;;15.85;3.45;;;7.00;99.90;;;;;;5080296;28;20224;-79
2021/03/16 00:35:07;;;;;;;12.43;3.20;;;7.00;99.90;;;;;;5082518;28;20631;-78
2021/03/16 00:37:34;;;;;;;13.48;3.63;;;7.00;99.90;;;;;;5081516;28;20193;-79
2021/03/16 00:40:00;;;;;;;19.67;3.72;;;7.00;99.90;;;;;;5082242;28;20192;-78
2021/03/16 00:42:27;;;;;;;15.50;3.55;;;7.00;99.90;;;;;;5078334;28;20203;-78
2021/03/16 00:44:54;;;;;;;16.48;3.60;;;7.00;99.90;;;;;;5078940;28;20281;-78
2021/03/16 00:47:20;;;;;;;14.23;3.60;;;7.00;99.90;;;;;;5080168;28;20292;-79
2021/03/16 00:49:46;;;;;;;8.15;3.20;;;6.90;99.90;;;;;;5083444;28;20196;-78
2021/03/16 00:52:13;;;;;;;14.93;3.30;;;7.00;99.90;;;;;;5082511;28;20620;-78
2021/03/16 00:54:39;;;;;;;14.88;4.97;;;7.00;99.90;;;;;;5079395;28;20210;-77
2021/03/16 00:57:06;;;;;;;11.85;3.42;;;7.00;99.90;;;;;;5079880;28;20228;-77
2021/03/16 00:59:34;;;;;;;8.00;3.78;;;7.00;99.90;;;;;;5077176;28;20196;-79
2021/03/16 01:02:00;;;;;;;9.60;3.80;;;7.00;99.90;;;;;;5084312;28;20288;-78
2021/03/16 01:04:26;;;;;;;16.35;4.38;;;7.00;99.90;;;;;;5081980;28;20200;-78
2021/03/16 01:06:53;;;;;;;9.98;3.25;;;7.00;99.90;;;;;;5078188;28;20294;-78
2021/03/16 01:09:19;;;;;;;11.77;3.65;;;7.00;99.90;;;;;;5078442;28;20206;-77
2021/03/16 01:11:46;;;;;;;19.23;3.75;;;7.00;99.90;;;;;;5079625;28;20762;-78
2021/03/16 01:14:13;;;;;;;21.30;4.88;;;7.00;99.90;;;;;;5078819;28;20291;-77
2021/03/16 01:16:40;;;;;;;13.35;4.55;;;7.00;99.90;;;;;;5081186;28;20203;-78
2021/03/16 01:19:06;;;;;;;11.48;3.72;;;7.00;99.90;;;;;;5083259;28;20571;-78
2021/03/16 01:21:32;;;;;;;12.23;3.92;;;6.90;99.90;;;;;;5078701;28;20249;-78
2021/03/16 01:23:59;;;;;;;17.73;5.32;;;7.00;99.90;;;;;;5079656;28;20772;-78
2021/03/16 01:26:25;;;;;;;11.85;3.72;;;6.90;99.90;;;;;;5079470;28;21205;-80
2021/03/16 01:28:52;;;;;;;18.25;4.07;;;6.90;99.90;;;;;;5080758;28;20217;-78
2021/03/16 01:31:18;;;;;;;9.43;2.92;;;7.00;99.90;;;;;;5080279;28;20226;-78
2021/03/16 01:33:45;;;;;;;13.70;3.70;;;7.00;99.90;;;;;;5079541;28;20313;-78
2021/03/16 01:36:12;;;;;;;14.23;4.38;;;7.00;99.90;;;;;;5078259;28;20235;-78
2021/03/16 01:38:38;;;;;;;15.85;4.47;;;6.90;99.90;;;;;;5078521;28;20647;-77
2021/03/16 01:41:05;;;;;;;19.42;5.30;;;6.90;99.90;;;;;;5078326;28;20602;-79
2021/03/16 01:43:33;;;;;;;12.27;4.00;;;6.90;99.90;;;;;;5084907;28;20200;-78
2021/03/16 01:46:00;;;;;;;16.33;3.58;;;6.90;99.90;;;;;;5080700;28;20203;-79
2021/03/16 01:48:30;;;;;;;13.80;3.65;;;6.90;99.90;;;;;;5076759;28;20888;-77
2021/03/16 01:50:57;;;;;;;20.80;3.35;;;6.90;99.90;;;;;;5076855;28;20631;-78
2021/03/16 01:53:24;;;;;;;15.05;3.42;;;6.90;99.90;;;;;;5078426;28;20192;-78
2021/03/16 01:55:53;;;;;;;10.90;3.72;;;6.90;99.90;;;;;;5083202;28;20203;-78
2021/03/16 01:58:19;;;;;;;13.15;3.30;;;6.90;99.90;;;;;;5080464;28;20199;-78
2021/03/16 02:00:46;;;;;;;8.65;3.10;;;6.90;99.90;;;;;;5076614;28;20326;-77
2021/03/16 02:03:13;;;;;;;14.13;3.17;;;7.00;99.90;;;;;;5079541;28;20541;-80
2021/03/16 02:05:41;;;;;;;13.75;3.10;;;6.90;99.90;;;;;;5078288;28;20192;-78
2021/03/16 02:08:19;;;;;;;13.63;4.55;;;7.00;99.90;;;;;;5080613;28;20313;-78
2021/03/16 02:10:57;;;;;;;14.65;3.45;;;7.00;99.90;;;;;;5081541;28;20192;-80
2021/03/16 02:13:30;;;;;;;13.65;3.60;;;7.00;99.90;;;;;;5079353;28;20249;-77
2021/03/16 02:16:00;;;;;;;18.02;5.00;;;7.00;99.90;;;;;;5078501;28;20291;-77
2021/03/16 02:18:33;;;;;;;19.00;4.03;;;6.90;99.90;;;;;;5076654;28;20203;-79
2021/03/16 02:21:08;;;;;;;12.45;3.78;;;7.00;99.90;;;;;;5077122;28;20198;-76
2021/03/16 02:24:01;;;;;;;14.52;3.80;;;6.90;99.90;;;;;;5077814;28;20591;-77
2021/03/16 02:26:33;;;;;;;15.60;3.28;;;6.90;99.90;;;;;;5073592;28;20300;-77
2021/03/16 02:29:15;;;;;;;11.57;3.17;;;6.90;99.90;;;;;;5079080;28;20294;-77
2021/03/16 02:31:47;;;;;;;18.90;4.90;;;7.00;99.90;;;;;;5078538;28;20314;-78
2021/03/16 02:34:16;;;;;;;16.77;4.00;;;6.90;99.90;;;;;;5081274;28;20200;-77
2021/03/16 02:36:44;;;;;;;13.70;3.80;;;6.90;99.90;;;;;;5080932;28;20842;-77
2021/03/16 02:39:12;;;;;;;13.15;3.10;;;6.90;99.90;;;;;;5077142;28;20199;-77
2021/03/16 02:41:42;;;;;;;13.40;4.57;;;6.90;99.90;;;;;;5077508;28;20319;-77
2021/03/16 02:44:09;;;;;;;11.82;3.53;;;6.80;99.90;;;;;;5078180;28;20202;-77
2021/03/16 02:46:40;;;;;;;17.38;4.65;;;6.80;99.90;;;;;;5078351;28;20253;-77
2021/03/16 02:49:07;;;;;;;13.60;3.95;;;6.80;99.90;;;;;;5076247;28;20676;-79
2021/03/16 02:51:36;;;;;;;13.82;3.83;;;6.80;99.90;;;;;;5077795;28;20249;-76
2021/03/16 02:54:03;;;;;;;13.30;3.30;;;6.90;99.90;;;;;;5081063;28;20188;-77
2021/03/16 02:56:31;;;;;;;19.20;4.22;;;6.90;99.90;;;;;;5078909;28;20616;-77
2021/03/16 02:58:59;;;;;;;14.27;4.25;;;6.90;99.90;;;;;;5077613;28;20605;-77
2021/03/16 03:01:26;;;;;;;16.08;3.58;;;6.80;99.90;;;;;;5077373;28;20228;-77
2021/03/16 03:03:55;;;;;;;11.77;3.17;;;6.80;99.90;;;;;;5083254;28;20192;-77
2021/03/16 03:06:22;;;;;;;19.30;3.63;;;6.80;99.90;;;;;;5080438;28;20918;-77
2021/03/16 03:08:49;;;;;;;9.18;3.38;;;6.80;99.90;;;;;;5075434;28;20223;-79
2021/03/16 03:11:15;;;;;;;10.55;3.53;;;6.80;99.90;;;;;;5076894;28;20873;-77
2021/03/16 03:13:42;;;;;;;15.57;5.00;;;6.80;99.90;;;;;;5078284;28;20664;-77
2021/03/16 03:16:09;;;;;;;13.77;3.90;;;6.80;99.90;;;;;;5078377;28;20605;-78
2021/03/16 03:18:35;;;;;;;10.93;4.32;;;6.80;99.90;;;;;;5080403;28;20249;-77
2021/03/16 03:21:05;;;;;;;6.70;3.10;;;6.80;99.90;;;;;;5079184;28;20286;-76
2021/03/16 03:23:34;;;;;;;12.05;3.75;;;6.80;99.90;;;;;;5081719;28;20195;-79
2021/03/16 03:26:03;;;;;;;14.82;4.15;;;6.80;99.90;;;;;;5080882;28;20582;-78
2021/03/16 03:28:33;;;;;;;9.20;4.05;;;6.80;99.90;;;;;;5084914;28;20640;-77
2021/03/16 03:31:01;;;;;;;8.88;4.03;;;6.80;99.90;;;;;;5082590;28;20244;-77
2021/03/16 03:33:30;;;;;;;15.50;4.07;;;6.80;99.90;;;;;;5082480;28;20682;-76
2021/03/16 03:35:57;;;;;;;20.65;5.35;;;6.80;99.90;;;;;;5082268;28;20196;-78
2021/03/16 03:38:26;;;;;;;11.35;3.80;;;6.80;99.90;;;;;;5080377;28;20195;-79
2021/03/16 03:40:53;;;;;;;14.38;3.60;;;6.80;99.90;;;;;;5081863;28;20298;-77
2021/03/16 03:43:21;;;;;;;13.60;3.83;;;6.80;99.90;;;;;;5080150;28;20322;-78
2021/03/16 03:45:51;;;;;;;12.80;3.80;;;6.80;99.90;;;;;;5087376;28;20227;-76
2021/03/16 03:48:19;;;;;;;19.45;3.75;;;6.90;99.90;;;;;;5084123;28;20583;-77
2021/03/16 03:50:49;;;;;;;18.88;4.50;;;6.90;99.90;;;;;;5080333;28;20272;-77
2021/03/16 03:53:16;;;;;;;17.85;3.30;;;6.90;99.90;;;;;;5079310;28;20547;-77
2021/03/16 03:55:44;;;;;;;17.65;3.70;;;6.90;99.90;;;;;;5081616;28;20283;-80
2021/03/16 03:58:12;;;;;;;13.02;4.88;;;6.90;99.90;;;;;;5081850;28;20284;-77
2021/03/16 04:00:39;;;;;;;9.77;3.42;;;6.80;99.90;;;;;;5083778;28;20248;-78
2021/03/16 04:03:06;;;;;;;14.60;3.67;;;6.90;99.90;;;;;;5080705;28;20200;-79
2021/03/16 04:05:33;;;;;;;11.43;3.92;;;6.90;99.90;;;;;;5081159;28;20674;-77
2021/03/16 04:08:03;;;;;;;11.98;3.67;;;6.90;99.90;;;;;;5079734;28;20196;-77
2021/03/16 04:10:30;;;;;;;12.75;3.67;;;6.90;99.90;;;;;;5079676;28;20575;-78
2021/03/16 04:12:58;;;;;;;13.02;4.50;;;6.90;99.90;;;;;;5084228;28;20248;-78
2021/03/16 04:15:25;;;;;;;17.70;3.65;;;6.90;99.90;;;;;;5082529;28;20279;-77
2021/03/16 04:17:52;;;;;;;12.93;6.20;;;6.90;99.90;;;;;;5082543;28;20643;-77
2021/03/16 04:20:19;;;;;;;14.60;4.22;;;6.90;99.90;;;;;;5079682;28;20328;-79
2021/03/16 04:22:46;;;;;;;8.50;3.35;;;6.90;99.90;;;;;;5080380;28;20200;-78
2021/03/16 04:25:13;;;;;;;12.50;3.58;;;6.90;99.90;;;;;;5080937;28;20220;-77
2021/03/16 04:27:39;;;;;;;12.30;4.30;;;6.90;99.90;;;;;;5082132;28;20199;-77
2021/03/16 04:30:08;;;;;;;10.90;3.70;;;6.90;99.90;;;;;;5083454;28;20334;-77
2021/03/16 04:32:35;;;;;;;17.55;4.00;;;7.00;99.90;;;;;;5082544;28;20215;-77
2021/03/16 04:35:02;;;;;;;12.75;5.00;;;7.00;99.90;;;;;;5081633;28;20198;-80
2021/03/16 04:37:28;;;;;;;14.73;3.67;;;7.00;99.90;;;;;;5079342;28;20200;-77
2021/03/16 04:39:55;;;;;;;15.32;3.95;;;7.00;99.90;;;;;;5078726;28;20200;-79
2021/03/16 04:42:21;;;;;;;11.60;4.15;;;7.00;99.90;;;;;;5081358;28;20200;-78
2021/03/16 04:44:48;;;;;;;11.80;3.38;;;7.00;99.90;;;;;;5082677;28;20335;-77
2021/03/16 04:47:15;;;;;;;14.82;4.00;;;7.00;99.90;;;;;;5083803;28;20319;-78
2021/03/16 04:49:42;;;;;;;12.90;3.95;;;7.00;99.90;;;;;;5081793;28;20303;-77
2021/03/16 04:52:08;;;;;;;9.30;3.47;;;7.00;99.90;;;;;;5078439;28;20216;-77
2021/03/16 04:54:35;;;;;;;13.57;4.03;;;7.00;99.90;;;;;;5079011;28;20206;-77
2021/03/16 04:57:01;;;;;;;14.65;3.53;;;7.00;99.90;;;;;;5081261;28;20188;-80
2021/03/16 04:59:27;;;;;;;17.50;5.15;;;7.00;99.90;;;;;;5080711;28;20232;-77
2021/03/16 05:01:54;;;;;;;17.10;5.88;;;7.00;99.90;;;;;;5081141;28;20247;-77
2021/03/16 05:04:21;;;;;;;14.40;3.65;;;7.00;99.90;;;;;;5082432;28;20476;-79
2021/03/16 05:06:48;;;;;;;9.35;3.50;;;7.00;99.90;;;;;;5079504;28;20195;-78
2021/03/16 05:09:14;;;;;;;19.70;5.35;;;7.00;99.90;;;;;;5078985;28;20207;-78
2021/03/16 05:11:41;;;;;;;24.40;5.00;;;7.00;99.90;;;;;;5077013;28;20215;-78
2021/03/16 05:14:07;;;;;;;10.13;3.80;;;7.00;99.90;;;;;;5079897;28;20197;-79
2021/03/16 05:16:33;;;;;;;21.63;4.22;;;7.00;99.90;;;;;;5083854;28;20193;-76
2021/03/16 05:19:01;;;;;;;12.38;5.43;;;7.00;99.90;;;;;;5078794;28;20658;-77
2021/03/16 05:21:29;;;;;;;24.30;3.38;;;7.00;99.90;;;;;;5079036;28;20204;-78
2021/03/16 05:23:55;;;;;;;10.02;3.85;;;7.00;99.90;;;;;;5079260;28;20216;-78
2021/03/16 05:26:22;;;;;;;14.77;3.60;;;6.90;99.90;;;;;;5079787;28;20640;-77
2021/03/16 05:28:49;;;;;;;9.82;3.15;;;7.00;99.90;;;;;;5082984;28;20659;-76
2021/03/16 05:31:15;;;;;;;7.72;3.25;;;7.00;99.90;;;;;;5079313;28;20282;-78
2021/03/16 05:33:42;;;;;;;9.18;3.58;;;7.00;99.90;;;;;;5078255;28;20217;-77
2021/03/16 05:36:08;;;;;;;16.40;4.43;;;6.90;99.90;;;;;;5078651;28;20715;-77
2021/03/16 05:38:35;;;;;;;13.43;4.18;;;6.90;99.90;;;;;;5082391;28;20697;-77
2021/03/16 05:41:02;;;;;;;7.95;3.13;;;6.90;99.90;;;;;;5084763;28;20196;-78
2021/03/16 05:43:30;;;;;;;12.38;4.00;;;6.90;99.90;;;;;;5078086;28;20214;-77
2021/03/16 05:45:57;;;;;;;16.98;4.05;;;6.90;99.90;;;;;;5078349;28;20727;-76
2021/03/16 05:48:24;;;;;;;14.45;4.65;;;6.90;99.90;;;;;;5075551;28;20196;-77
2021/03/16 05:50:52;;;;;;;14.07;3.85;;;6.90;99.90;;;;;;5078531;28;20238;-77
2021/03/16 05:53:18;;;;;;;12.30;3.25;;;6.90;99.90;;;;;;5078950;28;20216;-79
2021/03/16 05:55:46;;;;;;;13.98;4.47;;;6.90;99.90;;;;;;5078141;28;20240;-79
2021/03/16 05:58:13;;;;;;;13.52;4.72;;;6.90;99.90;;;;;;5067503;28;20196;-76
2021/03/16 06:00:39;;;;;;;7.50;3.30;;;6.90;99.90;;;;;;5072392;28;20335;-78
2021/03/16 06:03:06;;;;;;;12.80;3.72;;;6.90;99.90;;;;;;5074263;28;20258;-77
2021/03/16 06:05:32;;;;;;;13.45;4.45;;;6.90;99.90;;;;;;5074784;28;20274;-78
2021/03/16 06:07:59;;;;;;;12.32;3.20;;;6.90;99.90;;;;;;5081165;28;20465;-78
2021/03/16 06:10:25;;;;;;;9.93;3.63;;;6.90;99.90;;;;;;5076639;28;20204;-78
2021/03/16 06:12:53;;;;;;;6.75;3.22;;;6.90;99.90;;;;;;5076018;28;20224;-78
2021/03/16 06:15:21;;;;;;;8.15;2.92;;;6.90;99.90;;;;;;5079734;28;20223;-80
2021/03/16 06:17:49;;;;;;;11.32;4.05;;;6.90;99.90;;;;;;5077362;28;20196;-79
2021/03/16 06:20:26;;;;;;;13.52;3.63;;;7.00;99.90;;;;;;5079990;28;20196;-79
2021/03/16 06:23:07;;;;;;;11.40;3.70;;;7.00;99.90;;;;;;5079407;28;20863;-78
2021/03/16 06:25:35;;;;;;;17.35;4.15;;;7.00;99.90;;;;;;5077383;28;20682;-78
2021/03/16 06:28:04;;;;;;;7.90;3.05;;;7.10;99.90;;;;;;5079124;28;20632;-79
2021/03/16 06:30:31;;;;;;;14.70;3.47;;;7.10;99.90;;;;;;5076385;28;20287;-78
2021/03/16 06:32:57;;;;;;;20.35;4.65;;;7.10;99.90;;;;;;5076893;28;20230;-78
2021/03/16 06:35:24;;;;;;;8.55;2.95;;;7.10;99.90;;;;;;5077595;28;20192;-78
2021/03/16 06:38:01;;;;;;;10.52;4.10;;;7.20;99.90;;;;;;5080864;28;20203;-77
2021/03/16 06:40:28;;;;;;;16.48;4.82;;;7.20;99.90;;;;;;5077609;28;20264;-77
2021/03/16 06:43:06;;;;;;;15.57;5.05;;;7.30;99.90;;;;;;5075596;28;20232;-77
2021/03/16 06:45:35;;;;;;;17.17;5.60;;;7.20;99.90;;;;;;5072233;28;20291;-77
2021/03/16 06:48:13;;;;;;;15.63;4.90;;;7.30;99.90;;;;;;5076984;28;20664;-78
2021/03/16 06:50:39;;;;;;;25.33;5.60;;;7.30;99.90;;;;;;5073980;28;20203;-78
2021/03/16 06:53:06;;;;;;;13.70;5.72;;;7.30;99.90;;;;;;5081444;28;20270;-77
2021/03/16 06:55:32;;;;;;;15.30;6.28;;;7.40;99.90;;;;;;5079052;28;20310;-80
2021/03/16 06:58:08;;;;;;;18.42;6.45;;;7.40;99.90;;;;;;5077213;28;20667;-78
2021/03/16 07:00:34;;;;;;;13.77;5.60;;;7.40;99.90;;;;;;5076854;28;20267;-77
2021/03/16 07:03:12;;;;;;;16.88;6.05;;;7.40;99.90;;;;;;5073382;28;20252;-78
2021/03/16 07:05:39;;;;;;;15.07;5.88;;;7.50;99.90;;;;;;5075636;28;20211;-78
2021/03/16 07:08:07;;;;;;;21.60;5.95;;;7.50;99.90;;;;;;5072345;28;20192;-77
2021/03/16 07:10:36;;;;;;;10.80;5.22;;;7.60;99.90;;;;;;5077708;28;20648;-78
2021/03/16 07:13:03;;;;;;;14.38;5.93;;;7.60;99.90;;;;;;5077898;28;20255;-78
2021/03/16 07:15:31;;;;;;;16.55;6.57;;;7.60;99.90;;;;;;5076294;28;20201;-77
2021/03/16 07:17:58;;;;;;;22.73;6.88;;;7.60;99.90;;;;;;5076782;28;20200;-78
2021/03/16 07:20:34;;;;;;;27.63;8.20;;;7.70;99.90;;;;;;5076743;28;20197;-78
2021/03/16 07:23:03;;;;;;;14.45;8.50;;;7.70;99.90;;;;;;5080663;28;20195;-77
2021/03/16 07:25:30;;;;;;;18.80;8.07;;;7.70;99.90;;;;;;5079124;28;20691;-77
2021/03/16 07:27:58;;;;;;;24.88;9.85;;;7.80;99.90;;;;;;5076084;28;20285;-78
2021/03/16 07:30:26;;;;;;;17.23;8.90;;;7.80;99.90;;;;;;5075519;28;20220;-79
2021/03/16 07:32:54;;;;;;;18.80;8.95;;;7.90;99.90;;;;;;5076430;28;20220;-80
2021/03/16 07:35:20;;;;;;;21.58;9.88;;;7.90;99.90;;;;;;5081663;28;20192;-78
2021/03/16 07:37:48;;;;;;;42.45;10.38;;;8.00;99.90;;;;;;5079255;28;20212;-78
2021/03/16 07:40:16;;;;;;;22.65;9.70;;;8.00;99.90;;;;;;5080676;28;20285;-78
2021/03/16 07:42:43;;;;;;;21.50;8.95;;;8.10;99.90;;;;;;5076974;28;20220;-79
2021/03/16 07:45:10;;;;;;;13.07;7.55;;;8.10;99.90;;;;;;5075772;28;20207;-78
2021/03/16 07:47:38;;;;;;;11.40;6.43;;;8.10;99.90;;;;;;5078066;28;20235;-78
2021/03/16 07:50:07;;;;;;;13.45;6.60;;;8.10;99.90;;;;;;5076530;28;20205;-80
2021/03/16 07:52:45;;;;;;;18.33;7.97;;;8.10;99.90;;;;;;5082549;28;20220;-77
2021/03/16 07:55:24;;;;;;;13.13;5.95;;;8.00;99.90;;;;;;5078959;28;20221;-78
2021/03/16 07:57:50;;;;;;;17.77;6.40;;;8.00;99.90;;;;;;5077657;28;20209;-77
2021/03/16 08:00:27;;;;;;;13.70;5.28;;;8.00;99.90;;;;;;5077300;28;20634;-80
2021/03/16 08:02:57;;;;;;;7.95;4.15;;;8.00;99.90;;;;;;5074077;28;20303;-77
2021/03/16 08:05:26;;;;;;;16.45;4.43;;;8.00;99.90;;;;;;5071821;28;20303;-78
2021/03/16 08:07:53;;;;;;;10.50;3.97;;;8.00;99.90;;;;;;5076985;28;20184;-77
2021/03/16 08:10:30;;;;;;;19.65;4.28;;;7.90;99.90;;;;;;5080046;28;20203;-78
2021/03/16 08:13:00;;;;;;;8.45;5.10;;;7.90;99.90;;;;;;5080284;28;20292;-78
2021/03/16 08:15:27;;;;;;;12.13;5.20;;;7.90;99.90;;;;;;5079121;28;20239;-79
2021/03/16 08:17:58;;;;;;;18.65;5.65;;;7.90;99.90;;;;;;5081538;28;20223;-78
2021/03/16 08:20:27;;;;;;;13.43;5.60;;;8.00;99.90;;;;;;5080305;28;20192;-78
2021/03/16 08:23:04;;;;;;;16.33;5.57;;;8.00;99.90;;;;;;5081900;28;20554;-78
2021/03/16 08:25:31;;;;;;;21.85;6.22;;;8.00;99.90;;;;;;5081778;28;20216;-79
2021/03/16 08:28:00;;;;;;;18.88;5.18;;;8.10;99.90;;;;;;5082297;28;20195;-79
2021/03/16 08:30:28;;;;;;;18.67;5.32;;;8.10;99.90;;;;;;5079560;28;20204;-78
2021/03/16 08:32:54;;;;;;;14.15;5.47;;;8.20;99.90;;;;;;5078159;28;20566;-78
2021/03/16 08:35:21;;;;;;;18.65;5.40;;;8.30;99.90;;;;;;5079165;28;20232;-80
2021/03/16 08:37:51;;;;;;;15.05;5.38;;;8.40;99.90;;;;;;5081257;28;20707;-79
2021/03/16 08:40:22;;;;;;;21.52;5.95;;;8.50;99.90;;;;;;5085217;28;20223;-81
2021/03/16 08:42:48;;;;;;;11.20;5.18;;;8.60;99.90;;;;;;5078946;28;20279;-80
2021/03/16 08:45:15;;;;;;;12.70;4.80;;;8.70;99.90;;;;;;5071999;28;20306;-79
2021/03/16 08:47:42;;;;;;;14.80;5.35;;;8.80;99.90;;;;;;5068511;28;20230;-80
2021/03/16 08:50:09;;;;;;;10.02;5.15;;;8.90;99.90;;;;;;5076436;28;20413;-80
2021/03/16 08:52:36;;;;;;;15.02;5.20;;;8.90;99.90;;;;;;5081175;28;20274;-78
2021/03/16 08:55:04;;;;;;;19.35;5.13;;;8.90;99.90;;;;;;5079938;28;20197;-79
2021/03/16 08:57:31;;;;;;;12.68;4.47;;;8.90;99.90;;;;;;5078914;28;20189;-79
2021/03/16 08:59:58;;;;;;;15.27;3.80;;;9.00;99.90;;;;;;5079456;28;20223;-79
2021/03/16 09:02:28;;;;;;;8.88;4.63;;;9.00;99.90;;;;;;5080795;28;20203;-80
2021/03/16 09:04:55;;;;;;;7.38;3.65;;;8.90;99.90;;;;;;5083184;28;20218;-79
2021/03/16 09:07:22;;;;;;;11.05;3.95;;;8.90;99.90;;;;;;5080951;28;20571;-78
2021/03/16 09:09:49;;;;;;;10.80;3.47;;;8.90;99.90;;;;;;5077534;28;20292;-79
2021/03/16 09:12:26;;;;;;;11.85;3.70;;;9.00;99.90;;;;;;5074773;28;20571;-78
2021/03/16 09:14:53;;;;;;;9.63;3.58;;;8.90;99.90;;;;;;5079112;28;20206;-79
2021/03/16 09:17:19;;;;;;;9.00;3.28;;;8.90;99.90;;;;;;5079820;28;20228;-80
2021/03/16 09:19:46;;;;;;;11.55;5.85;;;8.90;99.90;;;;;;5084300;28;20204;-80
2021/03/16 09:22:14;;;;;;;17.27;4.38;;;8.90;99.90;;;;;;5080254;28;20197;-77
2021/03/16 09:24:43;;;;;;;11.98;4.78;;;8.80;99.90;;;;;;5077854;28;20253;-79
2021/03/16 09:27:09;;;;;;;12.75;3.97;;;8.80;99.90;;;;;;5079166;28;20200;-80
2021/03/16 09:29:38;;;;;;;10.88;4.03;;;8.90;99.90;;;;;;5080075;28;20403;-78
2021/03/16 09:32:06;;;;;;;11.68;4.05;;;8.90;99.90;;;;;;5080918;28;20231;-79
2021/03/16 09:34:36;;;;;;;9.23;4.63;;;8.90;99.90;;;;;;5081033;28;20846;-80
2021/03/16 09:37:04;;;;;;;13.95;8.30;;;8.90;99.90;;;;;;5080824;28;20201;-78
2021/03/16 09:39:31;;;;;;;4.75;3.95;;;8.90;99.90;;;;;;5076724;28;20257;-79
2021/03/16 09:41:59;;;;;;;4.60;3.30;;;8.90;99.90;;;;;;5080832;28;20201;-80
2021/03/16 09:44:34;;;;;;;3.78;2.60;;;8.90;99.90;;;;;;5078472;28;20196;-79
2021/03/16 09:47:03;;;;;;;4.22;2.72;;;8.90;99.90;;;;;;5077299;28;20651;-78
2021/03/16 09:49:31;;;;;;;5.35;3.10;;;8.80;99.90;;;;;;5080461;28;20283;-79
2021/03/16 09:52:06;;;;;;;7.78;3.30;;;8.90;99.90;;;;;;5078495;28;20262;-79
2021/03/16 09:54:40;;;;;;;5.57;3.13;;;8.90;99.90;;;;;;5077897;28;20238;-78
2021/03/16 09:57:11;;;;;;;16.13;5.03;;;9.00;99.90;;;;;;5079038;28;20222;-77
2021/03/16 09:59:39;;;;;;;11.00;4.25;;;9.10;99.90;;;;;;5081603;28;20305;-78
2021/03/16 10:02:07;;;;;;;7.53;4.38;;;9.10;99.90;;;;;;5082418;28;20358;-79
2021/03/16 10:04:47;;;;;;;4.95;4.07;;;9.20;99.90;;;;;;5077380;28;20292;-80
2021/03/16 10:07:24;;;;;;;5.80;3.85;;;9.40;99.90;;;;;;5078120;28;20240;-79
2021/03/16 10:09:51;;;;;;;11.05;3.83;;;9.60;99.90;;;;;;5078250;28;20717;-81
2021/03/16 10:12:18;;;;;;;5.38;2.90;;;9.70;99.90;;;;;;5080132;28;20305;-80
2021/03/16 10:14:49;;;;;;;16.33;3.13;;;9.80;99.90;;;;;;5083582;28;20206;-80
2021/03/16 10:17:24;;;;;;;9.60;3.85;;;9.80;99.90;;;;;;5079062;28;20210;-79
2021/03/16 10:19:55;;;;;;;10.38;3.88;;;9.90;99.90;;;;;;5078476;28;20206;-80
2021/03/16 10:22:27;;;;;;;11.63;3.45;;;9.90;99.90;;;;;;5077983;28;20205;-79
2021/03/16 10:24:55;;;;;;;11.88;3.50;;;10.00;99.90;;;;;;5078498;28;20241;-78
2021/03/16 10:27:30;;;;;;;6.03;2.72;;;10.00;99.90;;;;;;5076247;28;20228;-79
2021/03/16 10:29:57;;;;;;;13.52;4.88;;;10.00;99.90;;;;;;5077140;28;20202;-78
2021/03/16 10:32:24;;;;;;;12.52;2.88;;;10.10;99.90;;;;;;5081759;28;20230;-78
2021/03/16 10:34:51;;;;;;;5.55;3.03;;;10.20;99.90;;;;;;5081827;28;20221;-81
2021/03/16 10:37:19;;;;;;;6.45;3.20;;;10.30;99.90;;;;;;5077818;28;20230;-80
2021/03/16 10:39:45;;;;;;;11.27;2.55;;;10.40;99.90;;;;;;5076632;28;20612;-80
2021/03/16 10:42:12;;;;;;;4.57;3.10;;;10.50;99.90;;;;;;5078011;28;20294;-79
2021/03/16 10:44:39;;;;;;;4.93;2.80;;;10.50;99.90;;;;;;5077492;28;20249;-78
2021/03/16 10:47:06;;;;;;;7.43;3.10;;;10.50;99.90;;;;;;5081679;28;20198;-78
2021/03/16 10:49:33;;;;;;;5.88;3.55;;;10.50;99.90;;;;;;5078915;28;20193;-78
2021/03/16 10:52:00;;;;;;;16.75;3.97;;;10.40;99.90;;;;;;5076927;28;20253;-78
2021/03/16 10:54:27;;;;;;;7.13;3.58;;;10.40;99.90;;;;;;5076912;28;20628;-79
2021/03/16 10:56:54;;;;;;;7.47;3.60;;;10.40;99.90;;;;;;5079151;28;20201;-79
2021/03/16 10:59:21;;;;;;;19.27;5.07;;;10.40;99.90;;;;;;5078887;28;20319;-79
2021/03/16 11:01:49;;;;;;;9.93;4.10;;;10.40;99.90;;;;;;5081723;28;20613;-79
2021/03/16 11:04:17;;;;;;;6.25;2.97;;;10.40;99.90;;;;;;5073634;28;20256;-77
2021/03/16 11:06:45;;;;;;;13.30;3.78;;;10.40;99.90;;;;;;5074064;28;20612;-77
2021/03/16 11:09:12;;;;;;;6.82;4.20;;;10.40;99.90;;;;;;5072493;28;20202;-79
2021/03/16 11:11:38;;;;;;;6.60;3.80;;;10.40;99.90;;;;;;5079829;28;20290;-78
2021/03/16 11:14:04;;;;;;;7.85;3.80;;;10.40;99.90;;;;;;5080338;28;20238;-77
2021/03/16 11:16:58;;;;;;;9.40;4.85;;;10.60;99.90;;;;;;5075913;28;20291;-78
2021/03/16 11:19:25;;;;;;;11.32;3.45;;;10.60;99.90;;;;;;5016464;28;20649;-80
2021/03/16 11:21:52;;;;;;;8.85;3.95;;;10.70;99.90;;;;;;5061348;28;20276;-78
2021/03/16 11:24:19;;;;;;;8.68;3.55;;;10.80;99.90;;;;;;5072116;28;20333;-79
2021/03/16 11:26:45;;;;;;;5.10;3.67;;;10.80;99.90;;;;;;5074043;28;20216;-79
2021/03/16 11:29:12;;;;;;;6.82;3.78;;;10.80;99.90;;;;;;5075081;28;20191;-77
2021/03/16 11:31:38;;;;;;;5.75;3.58;;;10.90;99.90;;;;;;5078495;28;20203;-79
2021/03/16 11:34:05;;;;;;;10.73;5.68;;;11.00;99.90;;;;;;5078666;28;20291;-78
2021/03/16 11:36:31;;;;;;;15.70;4.60;;;11.00;99.90;;;;;;5074645;28;20200;-80
2021/03/16 11:38:59;;;;;;;14.57;4.63;;;11.00;99.90;;;;;;5078025;28;20196;-81
2021/03/16 11:41:25;;;;;;;24.42;4.72;;;11.00;99.90;;;;;;5076206;28;20200;-80
2021/03/16 11:43:52;;;;;;;10.10;5.20;;;10.90;99.90;;;;;;5082494;28;20204;-77
2021/03/16 11:46:18;;;;;;;6.72;4.40;;;10.80;99.90;;;;;;5083857;28;20715;-75
2021/03/16 11:48:45;;;;;;;18.73;5.38;;;10.70;99.90;;;;;;5080790;28;20286;-75
2021/03/16 11:51:11;;;;;;;6.80;4.20;;;10.50;99.90;;;;;;5078723;28;20535;-75
2021/03/16 11:53:38;;;;;;;10.63;5.55;;;10.10;99.90;;;;;;5077772;28;20251;-76
2021/03/16 11:56:06;;;;;;;10.00;4.45;;;9.80;99.90;;;;;;5081331;28;20226;-77
2021/03/16 11:58:33;;;;;;;6.80;5.35;;;9.50;99.90;;;;;;5080468;28;20286;-77
2021/03/16 12:01:00;;;;;;;10.50;5.00;;;9.40;99.90;;;;;;5075477;28;20270;-75
2021/03/16 12:03:27;;;;;;;8.07;4.25;;;9.30;99.90;;;;;;5074718;28;20235;-76
2021/03/16 12:05:53;;;;;;;4.38;3.97;;;9.10;99.90;;;;;;5074370;28;20201;-75
2021/03/16 12:08:20;;;;;;;10.98;4.25;;;9.00;99.90;;;;;;5076911;28;20231;-77
2021/03/16 12:10:50;;;;;;;7.30;4.03;;;8.80;99.90;;;;;;5071959;28;20261;-76
2021/03/16 12:13:17;;;;;;;7.07;3.10;;;8.70;99.90;;;;;;5080884;28;20229;-78
2021/03/16 12:15:43;;;;;;;4.32;2.90;;;8.60;99.90;;;;;;5082722;28;20197;-75
2021/03/16 12:18:10;;;;;;;6.50;2.47;;;8.50;99.90;;;;;;5079342;28;20203;-76
2021/03/16 12:20:37;;;;;;;8.45;3.10;;;8.40;99.90;;;;;;5079951;28;20211;-76
2021/03/16 12:23:03;;;;;;;6.18;3.50;;;8.40;99.90;;;;;;5082961;28;20221;-77
2021/03/16 12:25:30;;;;;;;5.82;3.15;;;8.40;99.90;;;;;;5083342;28;20232;-77
2021/03/16 12:27:56;;;;;;;2.63;1.85;;;8.50;99.90;;;;;;5081293;28;20224;-76
2021/03/16 12:30:24;;;;;;;4.07;2.15;;;8.50;99.90;;;;;;5077531;28;20265;-76
2021/03/16 12:32:51;;;;;;;2.10;1.90;;;8.60;99.90;;;;;;5075468;28;20231;-76
2021/03/16 12:35:17;;;;;;;4.57;2.15;;;8.70;99.90;;;;;;5080574;28;20200;-78
2021/03/16 12:37:44;;;;;;;3.70;2.28;;;8.70;99.90;;;;;;5084522;28;20296;-75
2021/03/16 12:40:12;;;;;;;5.38;2.20;;;8.90;99.90;;;;;;5078012;28;20615;-76
2021/03/16 12:42:39;;;;;;;3.38;2.30;;;9.00;99.90;;;;;;5076157;28;20189;-76
2021/03/16 12:45:07;;;;;;;7.60;3.53;;;9.10;99.90;;;;;;5076506;28;20297;-76
2021/03/16 12:47:35;;;;;;;8.60;3.45;;;9.20;99.90;;;;;;5082543;28;20201;-76
2021/03/16 12:50:01;;;;;;;10.48;3.80;;;9.30;99.90;;;;;;5079602;28;20300;-77
2021/03/16 12:52:29;;;;;;;7.45;4.85;;;9.50;99.90;;;;;;5080280;28;20221;-76